Terminal Aerodrome Forecast
Issued by NWS

Home | Current Version | Previous Version | Text Only | Print | Product List | Glossary On
Versions: 1 2 3 4 5 6 7 8 9 10 11 12 13
000
FTUS43 KUNR 301720
TAFGCC
TAF
KGCC 301720Z 3018/0118 33014KT P6SM BKN100
      TEMPO 3018/3020 -SHRA BKN060
     FM010300 24007KT P6SM SCT050 SCT100
     FM011400 32012KT P6SM SCT080=

USA.gov is the U.S. government's official web portal to all federal, state and local government web resources and services.